sensor_id;sensor_type;location;lat;lon;timestamp;temperature;humidity
439;DHT22;206;48.782;9.252;2023-12-29T00:01:16;11.20;49.70
439;DHT22;206;48.782;9.252;2023-12-29T00:03:42;11.20;49.60
439;DHT22;206;48.782;9.252;2023-12-29T00:06:07;11.30;49.40
439;DHT22;206;48.782;9.252;2023-12-29T00:08:33;11.30;48.80
439;DHT22;206;48.782;9.252;2023-12-29T00:10:59;11.30;48.80
439;DHT22;206;48.782;9.252;2023-12-29T00:13:25;11.40;48.50
439;DHT22;206;48.782;9.252;2023-12-29T00:15:56;11.50;47.40
439;DHT22;206;48.782;9.252;2023-12-29T00:18:22;11.50;47.20
439;DHT22;206;48.782;9.252;2023-12-29T00:20:49;11.50;46.90
439;DHT22;206;48.782;9.252;2023-12-29T00:23:15;11.50;47.00
439;DHT22;206;48.782;9.252;2023-12-29T00:25:40;11.60;46.90
439;DHT22;206;48.782;9.252;2023-12-29T00:28:06;11.60;46.30
439;DHT22;206;48.782;9.252;2023-12-29T00:30:32;11.60;46.30
439;DHT22;206;48.782;9.252;2023-12-29T00:32:58;11.60;46.10
439;DHT22;206;48.782;9.252;2023-12-29T00:35:23;11.70;46.10
439;DHT22;206;48.782;9.252;2023-12-29T00:37:52;11.70;45.60
439;DHT22;206;48.782;9.252;2023-12-29T00:40:17;11.60;45.10
439;DHT22;206;48.782;9.252;2023-12-29T00:42:43;11.60;45.20
439;DHT22;206;48.782;9.252;2023-12-29T00:45:08;11.50;45.10
439;DHT22;206;48.782;9.252;2023-12-29T00:47:34;11.50;45.00
439;DHT22;206;48.782;9.252;2023-12-29T00:50:00;11.50;45.00
439;DHT22;206;48.782;9.252;2023-12-29T00:52:27;11.50;45.10
439;DHT22;206;48.782;9.252;2023-12-29T00:54:52;11.60;45.10
439;DHT22;206;48.782;9.252;2023-12-29T00:57:18;11.50;45.10
439;DHT22;206;48.782;9.252;2023-12-29T00:59:47;11.60;45.10
439;DHT22;206;48.782;9.252;2023-12-29T01:02:12;11.50;45.00
439;DHT22;206;48.782;9.252;2023-12-29T01:04:38;11.60;45.10
439;DHT22;206;48.782;9.252;2023-12-29T01:07:06;11.70;44.90
439;DHT22;206;48.782;9.252;2023-12-29T01:09:32;11.70;45.20
439;DHT22;206;48.782;9.252;2023-12-29T01:12:03;11.70;45.00
439;DHT22;206;48.782;9.252;2023-12-29T01:14:29;11.70;45.20
439;DHT22;206;48.782;9.252;2023-12-29T01:16:55;11.70;44.80
439;DHT22;206;48.782;9.252;2023-12-29T01:19:21;11.80;44.50
439;DHT22;206;48.782;9.252;2023-12-29T01:21:46;11.80;45.30
439;DHT22;206;48.782;9.252;2023-12-29T01:24:12;11.80;44.80
439;DHT22;206;48.782;9.252;2023-12-29T01:26:38;11.80;43.90
439;DHT22;206;48.782;9.252;2023-12-29T01:29:04;11.80;42.70
439;DHT22;206;48.782;9.252;2023-12-29T01:31:30;11.80;43.10
439;DHT22;206;48.782;9.252;2023-12-29T01:33:56;11.70;43.00
439;DHT22;206;48.782;9.252;2023-12-29T01:36:22;11.60;43.60
439;DHT22;206;48.782;9.252;2023-12-29T01:38:48;11.60;43.10
439;DHT22;206;48.782;9.252;2023-12-29T01:41:14;11.50;43.10
439;DHT22;206;48.782;9.252;2023-12-29T01:46:30;11.50;43.60
439;DHT22;206;48.782;9.252;2023-12-29T01:48:57;11.40;43.50
439;DHT22;206;48.782;9.252;2023-12-29T01:51:26;11.50;43.00
439;DHT22;206;48.782;9.252;2023-12-29T01:53:52;11.50;43.70
439;DHT22;206;48.782;9.252;2023-12-29T01:56:20;11.50;42.90
439;DHT22;206;48.782;9.252;2023-12-29T01:58:48;11.60;42.40
439;DHT22;206;48.782;9.252;2023-12-29T02:01:14;11.60;42.30
439;DHT22;206;48.782;9.252;2023-12-29T02:03:40;11.60;41.90
439;DHT22;206;48.782;9.252;2023-12-29T02:06:08;11.70;41.90
439;DHT22;206;48.782;9.252;2023-12-29T02:08:35;11.70;41.30
439;DHT22;206;48.782;9.252;2023-12-29T02:11:02;11.70;41.10
439;DHT22;206;48.782;9.252;2023-12-29T02:13:27;11.70;41.00
439;DHT22;206;48.782;9.252;2023-12-29T02:15:55;11.70;41.10
439;DHT22;206;48.782;9.252;2023-12-29T02:18:24;11.70;41.00
439;DHT22;206;48.782;9.252;2023-12-29T02:20:50;11.70;41.20
439;DHT22;206;48.782;9.252;2023-12-29T02:23:16;11.80;41.80
439;DHT22;206;48.782;9.252;2023-12-29T02:25:41;11.80;41.00
439;DHT22;206;48.782;9.252;2023-12-29T02:30:41;11.70;40.90
439;DHT22;206;48.782;9.252;2023-12-29T02:33:16;11.70;40.70
439;DHT22;206;48.782;9.252;2023-12-29T02:35:44;11.70;40.80
439;DHT22;206;48.782;9.252;2023-12-29T02:38:11;11.70;41.00
439;DHT22;206;48.782;9.252;2023-12-29T02:40:37;11.80;40.80
439;DHT22;206;48.782;9.252;2023-12-29T02:43:03;11.90;40.50
439;DHT22;206;48.782;9.252;2023-12-29T02:45:29;11.90;40.50
439;DHT22;206;48.782;9.252;2023-12-29T02:47:54;11.90;40.90
439;DHT22;206;48.782;9.252;2023-12-29T02:50:20;11.90;40.00
439;DHT22;206;48.782;9.252;2023-12-29T02:52:45;12.00;40.00
439;DHT22;206;48.782;9.252;2023-12-29T02:55:11;11.90;40.00
439;DHT22;206;48.782;9.252;2023-12-29T02:57:37;11.90;40.30
439;DHT22;206;48.782;9.252;2023-12-29T03:00:06;11.90;40.90
439;DHT22;206;48.782;9.252;2023-12-29T03:02:31;11.90;41.10
439;DHT22;206;48.782;9.252;2023-12-29T03:04:58;11.90;41.60
439;DHT22;206;48.782;9.252;2023-12-29T03:07:24;11.90;41.80
439;DHT22;206;48.782;9.252;2023-12-29T03:09:49;11.80;42.60
439;DHT22;206;48.782;9.252;2023-12-29T03:12:15;11.80;43.00
439;DHT22;206;48.782;9.252;2023-12-29T03:14:40;11.70;43.60
439;DHT22;206;48.782;9.252;2023-12-29T03:17:06;11.80;43.70
439;DHT22;206;48.782;9.252;2023-12-29T03:19:32;11.80;43.60
439;DHT22;206;48.782;9.252;2023-12-29T03:21:57;11.80;43.70
439;DHT22;206;48.782;9.252;2023-12-29T03:24:23;11.80;43.80
439;DHT22;206;48.782;9.252;2023-12-29T03:26:48;11.80;44.00
439;DHT22;206;48.782;9.252;2023-12-29T03:29:14;11.80;44.10
439;DHT22;206;48.782;9.252;2023-12-29T03:31:40;11.90;44.30
439;DHT22;206;48.782;9.252;2023-12-29T03:34:06;11.80;44.30
439;DHT22;206;48.782;9.252;2023-12-29T03:36:32;11.80;44.80
439;DHT22;206;48.782;9.252;2023-12-29T03:38:57;11.80;45.40
439;DHT22;206;48.782;9.252;2023-12-29T03:41:23;11.70;45.30
439;DHT22;206;48.782;9.252;2023-12-29T03:43:49;11.60;45.80
439;DHT22;206;48.782;9.252;2023-12-29T03:46:18;11.50;46.90
439;DHT22;206;48.782;9.252;2023-12-29T03:48:43;11.40;47.60
439;DHT22;206;48.782;9.252;2023-12-29T03:51:09;11.40;48.60
439;DHT22;206;48.782;9.252;2023-12-29T03:53:34;11.30;48.80
439;DHT22;206;48.782;9.252;2023-12-29T03:56:04;11.20;49.60
439;DHT22;206;48.782;9.252;2023-12-29T03:58:30;11.10;50.30
439;DHT22;206;48.782;9.252;2023-12-29T04:00:56;11.10;50.80
439;DHT22;206;48.782;9.252;2023-12-29T04:03:21;11.10;51.30
439;DHT22;206;48.782;9.252;2023-12-29T04:05:47;11.10;51.30
439;DHT22;206;48.782;9.252;2023-12-29T04:08:13;11.10;51.60
439;DHT22;206;48.782;9.252;2023-12-29T04:10:38;11.10;51.50
439;DHT22;206;48.782;9.252;2023-12-29T04:13:04;11.10;51.50
439;DHT22;206;48.782;9.252;2023-12-29T04:15:30;11.10;52.00
439;DHT22;206;48.782;9.252;2023-12-29T04:17:56;11.10;52.00
439;DHT22;206;48.782;9.252;2023-12-29T04:20:21;11.10;52.10
439;DHT22;206;48.782;9.252;2023-12-29T04:22:47;11.10;52.70
439;DHT22;206;48.782;9.252;2023-12-29T04:25:12;11.10;53.00
439;DHT22;206;48.782;9.252;2023-12-29T04:27:39;11.10;53.10
439;DHT22;206;48.782;9.252;2023-12-29T04:30:05;11.10;53.00
439;DHT22;206;48.782;9.252;2023-12-29T04:32:31;11.10;53.00
439;DHT22;206;48.782;9.252;2023-12-29T04:34:57;11.10;52.90
439;DHT22;206;48.782;9.252;2023-12-29T04:37:22;11.10;52.80
439;DHT22;206;48.782;9.252;2023-12-29T04:39:48;11.20;53.20
439;DHT22;206;48.782;9.252;2023-12-29T04:42:13;11.20;52.90
439;DHT22;206;48.782;9.252;2023-12-29T04:44:39;11.20;53.00
439;DHT22;206;48.782;9.252;2023-12-29T04:47:04;11.20;52.90
439;DHT22;206;48.782;9.252;2023-12-29T04:49:30;11.20;53.10
439;DHT22;206;48.782;9.252;2023-12-29T04:51:56;11.10;53.50
439;DHT22;206;48.782;9.252;2023-12-29T04:54:22;11.10;54.30
439;DHT22;206;48.782;9.252;2023-12-29T04:56:48;11.10;54.30
439;DHT22;206;48.782;9.252;2023-12-29T04:59:14;11.10;54.30
439;DHT22;206;48.782;9.252;2023-12-29T05:01:39;11.10;54.30
439;DHT22;206;48.782;9.252;2023-12-29T05:04:05;11.10;54.30
439;DHT22;206;48.782;9.252;2023-12-29T05:06:30;11.20;54.40
439;DHT22;206;48.782;9.252;2023-12-29T05:08:56;11.30;54.50
439;DHT22;206;48.782;9.252;2023-12-29T05:11:21;11.30;54.50
439;DHT22;206;48.782;9.252;2023-12-29T05:13:47;11.30;54.50
439;DHT22;206;48.782;9.252;2023-12-29T05:16:13;11.30;54.20
439;DHT22;206;48.782;9.252;2023-12-29T05:18:39;11.30;54.00
439;DHT22;206;48.782;9.252;2023-12-29T05:21:05;11.30;54.30
439;DHT22;206;48.782;9.252;2023-12-29T05:23:30;11.40;54.60
439;DHT22;206;48.782;9.252;2023-12-29T05:25:56;11.40;54.50
439;DHT22;206;48.782;9.252;2023-12-29T05:28:21;11.40;54.60
439;DHT22;206;48.782;9.252;2023-12-29T05:30:47;11.40;54.60
439;DHT22;206;48.782;9.252;2023-12-29T05:33:12;11.40;55.30
439;DHT22;206;48.782;9.252;2023-12-29T05:35:38;11.40;56.00
439;DHT22;206;48.782;9.252;2023-12-29T05:38:04;11.40;56.70
439;DHT22;206;48.782;9.252;2023-12-29T05:40:29;11.40;56.80
439;DHT22;206;48.782;9.252;2023-12-29T05:42:55;11.40;57.20
439;DHT22;206;48.782;9.252;2023-12-29T05:45:20;11.40;57.40
439;DHT22;206;48.782;9.252;2023-12-29T05:47:46;11.40;57.80
439;DHT22;206;48.782;9.252;2023-12-29T05:50:12;11.30;58.10
439;DHT22;206;48.782;9.252;2023-12-29T05:52:37;11.40;59.30
439;DHT22;206;48.782;9.252;2023-12-29T05:55:03;11.40;59.30
439;DHT22;206;48.782;9.252;2023-12-29T05:57:29;11.40;59.20
439;DHT22;206;48.782;9.252;2023-12-29T05:59:54;11.40;59.30
439;DHT22;206;48.782;9.252;2023-12-29T06:02:20;11.40;58.80
439;DHT22;206;48.782;9.252;2023-12-29T06:04:46;11.40;59.30
439;DHT22;206;48.782;9.252;2023-12-29T06:07:11;11.40;59.30
439;DHT22;206;48.782;9.252;2023-12-29T06:09:37;11.40;59.30
439;DHT22;206;48.782;9.252;2023-12-29T06:12:02;11.40;59.30
439;DHT22;206;48.782;9.252;2023-12-29T06:14:28;11.30;59.70
439;DHT22;206;48.782;9.252;2023-12-29T06:16:54;11.30;59.90
439;DHT22;206;48.782;9.252;2023-12-29T06:19:19;11.30;60.00
439;DHT22;206;48.782;9.252;2023-12-29T06:21:45;11.30;60.20
439;DHT22;206;48.782;9.252;2023-12-29T06:24:11;11.30;60.90
439;DHT22;206;48.782;9.252;2023-12-29T06:26:37;11.20;61.10
439;DHT22;206;48.782;9.252;2023-12-29T06:29:08;11.20;61.40
439;DHT22;206;48.782;9.252;2023-12-29T06:31:34;11.20;61.50
439;DHT22;206;48.782;9.252;2023-12-29T06:33:59;11.20;61.60
439;DHT22;206;48.782;9.252;2023-12-29T06:36:25;11.20;61.90
439;DHT22;206;48.782;9.252;2023-12-29T06:38:51;11.10;62.10
439;DHT22;206;48.782;9.252;2023-12-29T06:41:18;11.10;63.10
439;DHT22;206;48.782;9.252;2023-12-29T06:43:44;11.00;63.60
439;DHT22;206;48.782;9.252;2023-12-29T06:46:10;11.00;63.80
439;DHT22;206;48.782;9.252;2023-12-29T06:48:37;11.00;64.40
439;DHT22;206;48.782;9.252;2023-12-29T06:51:03;10.90;65.20
439;DHT22;206;48.782;9.252;2023-12-29T06:53:29;10.90;65.40
439;DHT22;206;48.782;9.252;2023-12-29T06:55:54;10.90;65.30
439;DHT22;206;48.782;9.252;2023-12-29T06:58:20;10.90;65.60
439;DHT22;206;48.782;9.252;2023-12-29T07:00:46;10.90;65.90
439;DHT22;206;48.782;9.252;2023-12-29T07:03:14;10.90;66.30
439;DHT22;206;48.782;9.252;2023-12-29T07:05:40;11.00;67.70
439;DHT22;206;48.782;9.252;2023-12-29T07:08:06;11.00;66.70
439;DHT22;206;48.782;9.252;2023-12-29T07:10:31;11.00;66.60
439;DHT22;206;48.782;9.252;2023-12-29T07:12:57;11.10;66.00
439;DHT22;206;48.782;9.252;2023-12-29T07:15:23;11.20;65.80
439;DHT22;206;48.782;9.252;2023-12-29T07:17:48;11.20;64.70
439;DHT22;206;48.782;9.252;2023-12-29T07:20:14;11.20;65.10
439;DHT22;206;48.782;9.252;2023-12-29T07:22:40;11.30;64.10
439;DHT22;206;48.782;9.252;2023-12-29T07:25:05;11.30;64.50
439;DHT22;206;48.782;9.252;2023-12-29T07:27:31;11.30;64.10
439;DHT22;206;48.782;9.252;2023-12-29T07:29:57;11.30;63.80
439;DHT22;206;48.782;9.252;2023-12-29T07:32:23;11.40;64.20
439;DHT22;206;48.782;9.252;2023-12-29T07:34:49;11.40;63.60
439;DHT22;206;48.782;9.252;2023-12-29T07:37:14;11.50;63.30
439;DHT22;206;48.782;9.252;2023-12-29T07:39:40;11.50;62.80
439;DHT22;206;48.782;9.252;2023-12-29T07:42:06;11.50;62.00
439;DHT22;206;48.782;9.252;2023-12-29T07:44:31;11.60;61.90
439;DHT22;206;48.782;9.252;2023-12-29T07:46:57;11.60;61.00
439;DHT22;206;48.782;9.252;2023-12-29T07:49:23;11.60;60.70
439;DHT22;206;48.782;9.252;2023-12-29T07:51:48;11.70;60.70
439;DHT22;206;48.782;9.252;2023-12-29T07:54:14;11.70;60.40
439;DHT22;206;48.782;9.252;2023-12-29T07:56:40;11.70;60.40
439;DHT22;206;48.782;9.252;2023-12-29T07:59:06;11.80;60.40
439;DHT22;206;48.782;9.252;2023-12-29T08:01:31;11.80;59.70
439;DHT22;206;48.782;9.252;2023-12-29T08:03:57;11.80;59.60
439;DHT22;206;48.782;9.252;2023-12-29T08:06:23;11.80;60.00
439;DHT22;206;48.782;9.252;2023-12-29T08:08:48;11.90;60.50
439;DHT22;206;48.782;9.252;2023-12-29T08:11:17;11.90;59.40
439;DHT22;206;48.782;9.252;2023-12-29T08:13:44;12.00;59.80
439;DHT22;206;48.782;9.252;2023-12-29T08:16:10;12.00;58.90
439;DHT22;206;48.782;9.252;2023-12-29T08:18:36;12.00;59.30
439;DHT22;206;48.782;9.252;2023-12-29T08:21:02;12.10;58.60
439;DHT22;206;48.782;9.252;2023-12-29T08:23:28;12.10;58.60
439;DHT22;206;48.782;9.252;2023-12-29T08:25:53;12.10;59.00
439;DHT22;206;48.782;9.252;2023-12-29T08:28:19;12.10;58.20
439;DHT22;206;48.782;9.252;2023-12-29T08:30:44;12.10;58.70
439;DHT22;206;48.782;9.252;2023-12-29T08:33:13;12.10;59.30
439;DHT22;206;48.782;9.252;2023-12-29T08:35:43;12.10;59.30
439;DHT22;206;48.782;9.252;2023-12-29T08:38:09;12.10;59.90
439;DHT22;206;48.782;9.252;2023-12-29T08:40:35;12.20;59.50
439;DHT22;206;48.782;9.252;2023-12-29T08:43:01;12.20;59.50
439;DHT22;206;48.782;9.252;2023-12-29T08:45:27;12.20;58.30
439;DHT22;206;48.782;9.252;2023-12-29T08:47:52;12.20;58.30
439;DHT22;206;48.782;9.252;2023-12-29T08:50:19;12.30;58.90
439;DHT22;206;48.782;9.252;2023-12-29T08:52:45;12.30;58.60
439;DHT22;206;48.782;9.252;2023-12-29T08:55:10;12.30;58.60
439;DHT22;206;48.782;9.252;2023-12-29T08:57:36;12.30;58.40
439;DHT22;206;48.782;9.252;2023-12-29T09:00:02;12.40;57.60
439;DHT22;206;48.782;9.252;2023-12-29T09:02:28;12.50;57.00
439;DHT22;206;48.782;9.252;2023-12-29T09:04:53;12.50;56.60
439;DHT22;206;48.782;9.252;2023-12-29T09:07:19;12.50;56.20
439;DHT22;206;48.782;9.252;2023-12-29T09:09:44;12.50;56.10
439;DHT22;206;48.782;9.252;2023-12-29T09:12:10;12.50;55.60
439;DHT22;206;48.782;9.252;2023-12-29T09:14:35;12.40;55.80
439;DHT22;206;48.782;9.252;2023-12-29T09:17:01;12.50;55.60
439;DHT22;206;48.782;9.252;2023-12-29T09:19:27;12.40;56.50
439;DHT22;206;48.782;9.252;2023-12-29T09:21:53;12.40;55.50
439;DHT22;206;48.782;9.252;2023-12-29T09:24:18;12.50;55.60
439;DHT22;206;48.782;9.252;2023-12-29T09:26:44;12.50;55.10
439;DHT22;206;48.782;9.252;2023-12-29T09:29:10;12.50;54.60
439;DHT22;206;48.782;9.252;2023-12-29T09:31:35;12.60;54.50
439;DHT22;206;48.782;9.252;2023-12-29T09:34:02;12.70;54.70
439;DHT22;206;48.782;9.252;2023-12-29T09:36:27;12.70;54.30
439;DHT22;206;48.782;9.252;2023-12-29T09:38:53;12.90;53.40
439;DHT22;206;48.782;9.252;2023-12-29T09:41:20;13.10;51.40
439;DHT22;206;48.782;9.252;2023-12-29T09:43:49;13.20;50.50
439;DHT22;206;48.782;9.252;2023-12-29T09:46:16;13.20;49.80
439;DHT22;206;48.782;9.252;2023-12-29T09:48:45;13.20;49.70
439;DHT22;206;48.782;9.252;2023-12-29T09:51:11;13.20;48.80
439;DHT22;206;48.782;9.252;2023-12-29T09:53:37;13.20;49.50
439;DHT22;206;48.782;9.252;2023-12-29T09:56:04;13.20;49.50
439;DHT22;206;48.782;9.252;2023-12-29T09:58:31;13.10;50.10
439;DHT22;206;48.782;9.252;2023-12-29T10:00:57;13.20;49.40
439;DHT22;206;48.782;9.252;2023-12-29T10:03:22;13.20;50.00
439;DHT22;206;48.782;9.252;2023-12-29T10:05:50;13.30;50.10
439;DHT22;206;48.782;9.252;2023-12-29T10:08:17;13.40;49.20
439;DHT22;206;48.782;9.252;2023-12-29T10:10:43;13.50;47.30
439;DHT22;206;48.782;9.252;2023-12-29T10:13:10;13.40;47.80
439;DHT22;206;48.782;9.252;2023-12-29T10:15:48;13.50;48.20
439;DHT22;206;48.782;9.252;2023-12-29T10:18:34;13.50;47.00
439;DHT22;206;48.782;9.252;2023-12-29T10:21:16;13.50;47.70
439;DHT22;206;48.782;9.252;2023-12-29T10:26:16;13.60;47.90
439;DHT22;206;48.782;9.252;2023-12-29T10:28:42;13.60;47.00
439;DHT22;206;48.782;9.252;2023-12-29T10:31:10;13.70;47.00
439;DHT22;206;48.782;9.252;2023-12-29T10:33:39;13.80;46.30
439;DHT22;206;48.782;9.252;2023-12-29T10:36:05;13.80;45.70
439;DHT22;206;48.782;9.252;2023-12-29T10:38:33;13.80;44.70
439;DHT22;206;48.782;9.252;2023-12-29T10:41:14;13.80;43.40
439;DHT22;206;48.782;9.252;2023-12-29T10:43:42;13.60;44.30
439;DHT22;206;48.782;9.252;2023-12-29T10:46:09;13.50;43.00
439;DHT22;206;48.782;9.252;2023-12-29T10:48:36;13.50;44.00
439;DHT22;206;48.782;9.252;2023-12-29T10:51:02;13.50;44.60
439;DHT22;206;48.782;9.252;2023-12-29T10:53:30;13.60;44.80
439;DHT22;206;48.782;9.252;2023-12-29T10:55:56;13.70;44.70
439;DHT22;206;48.782;9.252;2023-12-29T10:58:24;13.80;42.50
439;DHT22;206;48.782;9.252;2023-12-29T11:00:53;13.90;42.50
439;DHT22;206;48.782;9.252;2023-12-29T11:03:19;13.80;41.90
439;DHT22;206;48.782;9.252;2023-12-29T11:05:45;13.90;41.10
439;DHT22;206;48.782;9.252;2023-12-29T11:08:21;13.90;41.10
439;DHT22;206;48.782;9.252;2023-12-29T11:10:49;13.90;40.80
439;DHT22;206;48.782;9.252;2023-12-29T11:13:15;13.90;40.80
439;DHT22;206;48.782;9.252;2023-12-29T11:15:44;13.90;39.30
439;DHT22;206;48.782;9.252;2023-12-29T11:18:15;13.90;39.80
439;DHT22;206;48.782;9.252;2023-12-29T11:20:41;13.90;38.50
439;DHT22;206;48.782;9.252;2023-12-29T11:23:09;13.90;38.20
439;DHT22;206;48.782;9.252;2023-12-29T11:25:35;13.80;37.20
439;DHT22;206;48.782;9.252;2023-12-29T11:28:01;13.80;37.20
439;DHT22;206;48.782;9.252;2023-12-29T11:30:27;13.90;37.80
439;DHT22;206;48.782;9.252;2023-12-29T11:33:02;13.90;37.30
439;DHT22;206;48.782;9.252;2023-12-29T11:35:44;13.90;37.60
439;DHT22;206;48.782;9.252;2023-12-29T11:38:36;13.90;36.70
439;DHT22;206;48.782;9.252;2023-12-29T11:43:58;13.80;37.20
439;DHT22;206;48.782;9.252;2023-12-29T11:46:40;13.80;36.30
439;DHT22;206;48.782;9.252;2023-12-29T11:49:09;13.80;37.20
439;DHT22;206;48.782;9.252;2023-12-29T11:51:38;13.70;36.00
439;DHT22;206;48.782;9.252;2023-12-29T11:54:05;13.60;36.70
439;DHT22;206;48.782;9.252;2023-12-29T11:56:40;13.60;36.60
439;DHT22;206;48.782;9.252;2023-12-29T11:59:16;13.60;36.50
439;DHT22;206;48.782;9.252;2023-12-29T12:01:43;13.60;36.40
439;DHT22;206;48.782;9.252;2023-12-29T12:09:48;13.80;36.30
439;DHT22;206;48.782;9.252;2023-12-29T12:12:53;13.90;36.10
439;DHT22;206;48.782;9.252;2023-12-29T12:17:54;14.10;33.30
439;DHT22;206;48.782;9.252;2023-12-29T12:20:20;14.10;32.60
439;DHT22;206;48.782;9.252;2023-12-29T12:25:29;14.20;33.10
439;DHT22;206;48.782;9.252;2023-12-29T12:27:55;14.30;32.60
439;DHT22;206;48.782;9.252;2023-12-29T12:30:21;14.20;32.50
439;DHT22;206;48.782;9.252;2023-12-29T12:33:00;14.30;32.60
439;DHT22;206;48.782;9.252;2023-12-29T12:35:26;14.30;31.70
439;DHT22;206;48.782;9.252;2023-12-29T12:38:16;14.30;31.20
439;DHT22;206;48.782;9.252;2023-12-29T12:40:48;14.20;30.90
439;DHT22;206;48.782;9.252;2023-12-29T12:43:14;14.30;30.80
439;DHT22;206;48.782;9.252;2023-12-29T12:45:48;14.30;31.20
439;DHT22;206;48.782;9.252;2023-12-29T12:48:36;14.40;31.50
439;DHT22;206;48.782;9.252;2023-12-29T12:51:05;14.50;32.20
439;DHT22;206;48.782;9.252;2023-12-29T12:53:32;14.70;31.50
439;DHT22;206;48.782;9.252;2023-12-29T12:55:57;14.80;31.10
439;DHT22;206;48.782;9.252;2023-12-29T12:58:23;14.90;30.90
439;DHT22;206;48.782;9.252;2023-12-29T13:00:49;15.10;31.00
439;DHT22;206;48.782;9.252;2023-12-29T13:03:15;15.20;30.00
439;DHT22;206;48.782;9.252;2023-12-29T13:05:41;15.30;29.20
439;DHT22;206;48.782;9.252;2023-12-29T13:08:07;15.30;29.50
439;DHT22;206;48.782;9.252;2023-12-29T13:10:33;15.40;29.40
439;DHT22;206;48.782;9.252;2023-12-29T13:12:59;15.40;28.80
439;DHT22;206;48.782;9.252;2023-12-29T13:15:25;15.40;29.20
439;DHT22;206;48.782;9.252;2023-12-29T13:17:52;15.50;28.90
439;DHT22;206;48.782;9.252;2023-12-29T13:20:17;15.50;28.90
439;DHT22;206;48.782;9.252;2023-12-29T13:22:43;15.50;28.90
439;DHT22;206;48.782;9.252;2023-12-29T13:25:10;15.50;28.90
439;DHT22;206;48.782;9.252;2023-12-29T13:27:40;15.40;28.80
439;DHT22;206;48.782;9.252;2023-12-29T13:30:07;15.30;28.50
439;DHT22;206;48.782;9.252;2023-12-29T13:32:33;15.20;28.20
439;DHT22;206;48.782;9.252;2023-12-29T13:35:37;15.10;28.60
439;DHT22;206;48.782;9.252;2023-12-29T13:38:11;15.00;28.50
439;DHT22;206;48.782;9.252;2023-12-29T13:40:41;14.80;27.10
439;DHT22;206;48.782;9.252;2023-12-29T13:43:09;14.60;27.50
439;DHT22;206;48.782;9.252;2023-12-29T13:45:37;14.60;28.30
439;DHT22;206;48.782;9.252;2023-12-29T13:48:03;14.50;27.80
439;DHT22;206;48.782;9.252;2023-12-29T13:50:30;14.50;27.40
439;DHT22;206;48.782;9.252;2023-12-29T13:52:55;14.40;27.00
439;DHT22;206;48.782;9.252;2023-12-29T13:55:22;14.30;27.20
439;DHT22;206;48.782;9.252;2023-12-29T13:57:50;14.30;26.90
439;DHT22;206;48.782;9.252;2023-12-29T14:00:24;14.30;26.90
439;DHT22;206;48.782;9.252;2023-12-29T14:08:00;14.20;27.30
439;DHT22;206;48.782;9.252;2023-12-29T14:10:30;14.20;28.00
439;DHT22;206;48.782;9.252;2023-12-29T14:15:39;14.20;27.10
439;DHT22;206;48.782;9.252;2023-12-29T14:20:57;14.10;26.30
439;DHT22;206;48.782;9.252;2023-12-29T14:23:22;14.10;26.40
439;DHT22;206;48.782;9.252;2023-12-29T14:25:48;14.00;26.70
439;DHT22;206;48.782;9.252;2023-12-29T14:28:18;14.00;26.60
439;DHT22;206;48.782;9.252;2023-12-29T14:30:44;14.00;26.40
439;DHT22;206;48.782;9.252;2023-12-29T14:33:10;14.00;25.90
439;DHT22;206;48.782;9.252;2023-12-29T14:35:36;14.00;26.30
439;DHT22;206;48.782;9.252;2023-12-29T14:38:02;14.00;26.50
439;DHT22;206;48.782;9.252;2023-12-29T14:40:28;14.00;26.80
439;DHT22;206;48.782;9.252;2023-12-29T14:42:53;14.00;27.20
439;DHT22;206;48.782;9.252;2023-12-29T14:45:20;14.00;26.90
439;DHT22;206;48.782;9.252;2023-12-29T14:47:45;14.00;27.20
439;DHT22;206;48.782;9.252;2023-12-29T14:50:12;14.00;27.30
439;DHT22;206;48.782;9.252;2023-12-29T14:52:38;13.90;26.90
439;DHT22;206;48.782;9.252;2023-12-29T14:55:04;13.90;27.10
439;DHT22;206;48.782;9.252;2023-12-29T14:57:30;13.90;27.10
439;DHT22;206;48.782;9.252;2023-12-29T14:59:55;13.90;26.80
439;DHT22;206;48.782;9.252;2023-12-29T15:02:21;13.90;27.00
439;DHT22;206;48.782;9.252;2023-12-29T15:04:46;13.90;26.70
439;DHT22;206;48.782;9.252;2023-12-29T15:07:14;13.80;26.80
439;DHT22;206;48.782;9.252;2023-12-29T15:09:40;13.80;26.80
439;DHT22;206;48.782;9.252;2023-12-29T15:12:05;13.80;26.90
439;DHT22;206;48.782;9.252;2023-12-29T15:14:31;13.80;27.50
439;DHT22;206;48.782;9.252;2023-12-29T15:16:57;13.80;27.20
439;DHT22;206;48.782;9.252;2023-12-29T15:19:23;13.80;26.80
439;DHT22;206;48.782;9.252;2023-12-29T15:21:48;13.80;26.80
439;DHT22;206;48.782;9.252;2023-12-29T15:24:19;13.70;26.60
439;DHT22;206;48.782;9.252;2023-12-29T15:26:45;13.70;26.70
439;DHT22;206;48.782;9.252;2023-12-29T15:29:10;13.60;26.40
439;DHT22;206;48.782;9.252;2023-12-29T15:31:36;13.50;26.30
439;DHT22;206;48.782;9.252;2023-12-29T15:34:01;13.50;26.60
439;DHT22;206;48.782;9.252;2023-12-29T15:36:27;13.40;26.80
439;DHT22;206;48.782;9.252;2023-12-29T15:38:52;13.40;26.70
439;DHT22;206;48.782;9.252;2023-12-29T15:41:18;13.40;26.80
439;DHT22;206;48.782;9.252;2023-12-29T15:43:44;13.30;26.70
439;DHT22;206;48.782;9.252;2023-12-29T15:46:18;13.20;27.00
439;DHT22;206;48.782;9.252;2023-12-29T15:48:47;13.20;27.00
439;DHT22;206;48.782;9.252;2023-12-29T15:51:13;13.20;27.20
439;DHT22;206;48.782;9.252;2023-12-29T15:53:39;13.10;27.30
439;DHT22;206;48.782;9.252;2023-12-29T15:56:08;13.20;27.40
439;DHT22;206;48.782;9.252;2023-12-29T15:58:33;13.20;27.30
439;DHT22;206;48.782;9.252;2023-12-29T16:00:59;13.20;27.30
439;DHT22;206;48.782;9.252;2023-12-29T16:03:24;13.20;27.40
439;DHT22;206;48.782;9.252;2023-12-29T16:05:50;13.20;26.90
439;DHT22;206;48.782;9.252;2023-12-29T16:08:16;13.20;26.40
439;DHT22;206;48.782;9.252;2023-12-29T16:10:42;13.20;26.40
439;DHT22;206;48.782;9.252;2023-12-29T16:13:07;13.10;26.10
439;DHT22;206;48.782;9.252;2023-12-29T16:15:33;13.10;24.50
439;DHT22;206;48.782;9.252;2023-12-29T16:17:59;13.00;25.00
439;DHT22;206;48.782;9.252;2023-12-29T16:20:26;12.90;25.00
439;DHT22;206;48.782;9.252;2023-12-29T16:22:51;12.90;25.20
439;DHT22;206;48.782;9.252;2023-12-29T16:25:17;12.90;25.30
439;DHT22;206;48.782;9.252;2023-12-29T16:27:43;12.80;25.50
439;DHT22;206;48.782;9.252;2023-12-29T16:30:10;12.80;25.10
439;DHT22;206;48.782;9.252;2023-12-29T16:32:35;12.80;25.00
439;DHT22;206;48.782;9.252;2023-12-29T16:35:01;12.70;25.00
439;DHT22;206;48.782;9.252;2023-12-29T16:37:27;12.70;25.10
439;DHT22;206;48.782;9.252;2023-12-29T16:39:53;12.60;24.80
439;DHT22;206;48.782;9.252;2023-12-29T16:42:20;12.60;25.00
439;DHT22;206;48.782;9.252;2023-12-29T16:44:45;12.50;25.20
439;DHT22;206;48.782;9.252;2023-12-29T16:47:12;12.50;25.50
439;DHT22;206;48.782;9.252;2023-12-29T16:49:37;12.50;25.10
439;DHT22;206;48.782;9.252;2023-12-29T16:52:03;12.40;25.40
439;DHT22;206;48.782;9.252;2023-12-29T16:54:29;12.40;25.60
439;DHT22;206;48.782;9.252;2023-12-29T16:57:01;12.30;25.60
439;DHT22;206;48.782;9.252;2023-12-29T16:59:27;12.30;25.40
439;DHT22;206;48.782;9.252;2023-12-29T17:01:53;12.30;25.50
439;DHT22;206;48.782;9.252;2023-12-29T17:04:21;12.20;25.60